sensor_id;sensor_type;location;lat;lon;timestamp;P1;durP1;ratioP1;P2;durP2;ratioP2
59302;SDS011;45074;52.764;6.896;2022-10-16T00:00:02;5.90;;;2.75;;
59302;SDS011;45074;52.764;6.896;2022-10-16T00:02:28;8.02;;;2.75;;
59302;SDS011;45074;52.764;6.896;2022-10-16T00:04:54;9.80;;;2.60;;
59302;SDS011;45074;52.764;6.896;2022-10-16T00:07:19;8.13;;;2.90;;
59302;SDS011;45074;52.764;6.896;2022-10-16T00:09:45;6.82;;;2.80;;
59302;SDS011;45074;52.764;6.896;2022-10-16T00:12:11;8.40;;;3.08;;
59302;SDS011;45074;52.764;6.896;2022-10-16T00:14:37;6.55;;;3.00;;
59302;SDS011;45074;52.764;6.896;2022-10-16T00:17:02;7.32;;;2.70;;
59302;SDS011;45074;52.764;6.896;2022-10-16T00:19:28;8.00;;;2.95;;
59302;SDS011;45074;52.764;6.896;2022-10-16T00:21:54;7.32;;;2.85;;
59302;SDS011;45074;52.764;6.896;2022-10-16T00:24:19;6.57;;;2.75;;
59302;SDS011;45074;52.764;6.896;2022-10-16T00:26:45;8.68;;;2.88;;
59302;SDS011;45074;52.764;6.896;2022-10-16T00:29:14;9.63;;;3.20;;
59302;SDS011;45074;52.764;6.896;2022-10-16T00:31:40;7.75;;;2.90;;
59302;SDS011;45074;52.764;6.896;2022-10-16T00:34:06;7.70;;;2.70;;
59302;SDS011;45074;52.764;6.896;2022-10-16T00:36:31;7.00;;;2.92;;
59302;SDS011;45074;52.764;6.896;2022-10-16T00:38:57;7.07;;;2.85;;
59302;SDS011;45074;52.764;6.896;2022-10-16T00:41:25;7.13;;;2.90;;
59302;SDS011;45074;52.764;6.896;2022-10-16T00:43:53;6.78;;;2.70;;
59302;SDS011;45074;52.764;6.896;2022-10-16T00:46:39;8.93;;;3.13;;
59302;SDS011;45074;52.764;6.896;2022-10-16T00:51:38;7.45;;;2.70;;
59302;SDS011;45074;52.764;6.896;2022-10-16T00:54:10;7.18;;;2.60;;
59302;SDS011;45074;52.764;6.896;2022-10-16T00:56:39;5.82;;;2.80;;
59302;SDS011;45074;52.764;6.896;2022-10-16T00:59:07;7.72;;;2.97;;
59302;SDS011;45074;52.764;6.896;2022-10-16T01:01:40;6.47;;;2.63;;
59302;SDS011;45074;52.764;6.896;2022-10-16T01:04:06;5.40;;;2.70;;
59302;SDS011;45074;52.764;6.896;2022-10-16T01:09:28;9.85;;;3.35;;
59302;SDS011;45074;52.764;6.896;2022-10-16T01:12:17;5.93;;;2.63;;
59302;SDS011;45074;52.764;6.896;2022-10-16T01:17:36;8.82;;;3.00;;
59302;SDS011;45074;52.764;6.896;2022-10-16T01:31:22;6.90;;;3.22;;
59302;SDS011;45074;52.764;6.896;2022-10-16T01:34:28;6.38;;;2.95;;
59302;SDS011;45074;52.764;6.896;2022-10-16T01:36:57;5.40;;;2.90;;
59302;SDS011;45074;52.764;6.896;2022-10-16T01:39:30;6.60;;;3.03;;
59302;SDS011;45074;52.764;6.896;2022-10-16T01:42:05;5.18;;;2.97;;
59302;SDS011;45074;52.764;6.896;2022-10-16T01:44:34;6.35;;;3.22;;
59302;SDS011;45074;52.764;6.896;2022-10-16T01:47:02;10.70;;;3.25;;
59302;SDS011;45074;52.764;6.896;2022-10-16T01:49:30;7.32;;;3.15;;
59302;SDS011;45074;52.764;6.896;2022-10-16T01:51:59;7.68;;;3.20;;
59302;SDS011;45074;52.764;6.896;2022-10-16T01:54:28;8.07;;;3.20;;
59302;SDS011;45074;52.764;6.896;2022-10-16T01:56:58;7.80;;;2.88;;
59302;SDS011;45074;52.764;6.896;2022-10-16T01:59:26;8.43;;;3.28;;
59302;SDS011;45074;52.764;6.896;2022-10-16T02:01:56;6.68;;;2.90;;
59302;SDS011;45074;52.764;6.896;2022-10-16T02:04:30;6.28;;;2.95;;
59302;SDS011;45074;52.764;6.896;2022-10-16T02:07:02;6.68;;;2.90;;
59302;SDS011;45074;52.764;6.896;2022-10-16T02:09:29;7.28;;;2.97;;
59302;SDS011;45074;52.764;6.896;2022-10-16T02:11:57;6.50;;;2.60;;
59302;SDS011;45074;52.764;6.896;2022-10-16T02:14:27;6.75;;;2.90;;
59302;SDS011;45074;52.764;6.896;2022-10-16T02:16:53;7.00;;;2.70;;
59302;SDS011;45074;52.764;6.896;2022-10-16T02:19:19;6.18;;;2.88;;
59302;SDS011;45074;52.764;6.896;2022-10-16T02:21:48;6.75;;;2.85;;
59302;SDS011;45074;52.764;6.896;2022-10-16T02:27:08;6.47;;;2.70;;
59302;SDS011;45074;52.764;6.896;2022-10-16T02:29:39;6.18;;;2.83;;
59302;SDS011;45074;52.764;6.896;2022-10-16T02:32:10;8.75;;;3.10;;
59302;SDS011;45074;52.764;6.896;2022-10-16T02:34:38;5.18;;;2.67;;
59302;SDS011;45074;52.764;6.896;2022-10-16T02:37:05;7.63;;;2.90;;
59302;SDS011;45074;52.764;6.896;2022-10-16T02:39:32;6.75;;;2.80;;
59302;SDS011;45074;52.764;6.896;2022-10-16T02:41:59;7.40;;;2.90;;
59302;SDS011;45074;52.764;6.896;2022-10-16T02:44:24;7.97;;;2.80;;
59302;SDS011;45074;52.764;6.896;2022-10-16T02:46:51;6.95;;;2.70;;
59302;SDS011;45074;52.764;6.896;2022-10-16T02:49:17;6.57;;;2.85;;
59302;SDS011;45074;52.764;6.896;2022-10-16T02:51:43;6.70;;;2.80;;
59302;SDS011;45074;52.764;6.896;2022-10-16T02:54:09;4.43;;;2.60;;
59302;SDS011;45074;52.764;6.896;2022-10-16T02:56:34;5.45;;;2.88;;
59302;SDS011;45074;52.764;6.896;2022-10-16T02:59:00;8.00;;;3.08;;
59302;SDS011;45074;52.764;6.896;2022-10-16T03:01:26;6.22;;;2.90;;
59302;SDS011;45074;52.764;6.896;2022-10-16T03:03:51;6.13;;;2.63;;
59302;SDS011;45074;52.764;6.896;2022-10-16T03:06:17;7.85;;;3.00;;
59302;SDS011;45074;52.764;6.896;2022-10-16T03:08:43;7.15;;;2.80;;
59302;SDS011;45074;52.764;6.896;2022-10-16T03:11:08;6.80;;;2.85;;
59302;SDS011;45074;52.764;6.896;2022-10-16T03:13:34;5.68;;;2.90;;
59302;SDS011;45074;52.764;6.896;2022-10-16T03:15:59;4.97;;;2.67;;
59302;SDS011;45074;52.764;6.896;2022-10-16T03:18:25;5.40;;;2.70;;
59302;SDS011;45074;52.764;6.896;2022-10-16T03:20:51;6.10;;;2.90;;
59302;SDS011;45074;52.764;6.896;2022-10-16T03:23:16;7.20;;;2.83;;
59302;SDS011;45074;52.764;6.896;2022-10-16T03:25:42;5.75;;;2.72;;
59302;SDS011;45074;52.764;6.896;2022-10-16T03:28:07;5.45;;;2.70;;
59302;SDS011;45074;52.764;6.896;2022-10-16T03:30:33;5.07;;;2.88;;
59302;SDS011;45074;52.764;6.896;2022-10-16T03:32:59;8.07;;;3.00;;
59302;SDS011;45074;52.764;6.896;2022-10-16T03:35:24;4.70;;;2.70;;
59302;SDS011;45074;52.764;6.896;2022-10-16T03:37:50;6.05;;;3.38;;
59302;SDS011;45074;52.764;6.896;2022-10-16T03:40:16;7.13;;;3.17;;
59302;SDS011;45074;52.764;6.896;2022-10-16T03:42:42;5.72;;;3.28;;
59302;SDS011;45074;52.764;6.896;2022-10-16T03:45:08;5.78;;;2.95;;
59302;SDS011;45074;52.764;6.896;2022-10-16T03:47:34;5.40;;;3.10;;
59302;SDS011;45074;52.764;6.896;2022-10-16T03:50:00;7.75;;;3.20;;
59302;SDS011;45074;52.764;6.896;2022-10-16T03:52:26;5.68;;;3.13;;
59302;SDS011;45074;52.764;6.896;2022-10-16T03:54:51;8.43;;;3.40;;
59302;SDS011;45074;52.764;6.896;2022-10-16T03:57:17;7.20;;;3.42;;
59302;SDS011;45074;52.764;6.896;2022-10-16T03:59:43;6.03;;;3.03;;
59302;SDS011;45074;52.764;6.896;2022-10-16T04:02:09;6.78;;;3.30;;
59302;SDS011;45074;52.764;6.896;2022-10-16T04:04:35;7.20;;;3.58;;
59302;SDS011;45074;52.764;6.896;2022-10-16T04:07:00;6.10;;;3.15;;
59302;SDS011;45074;52.764;6.896;2022-10-16T04:09:27;8.35;;;3.42;;
59302;SDS011;45074;52.764;6.896;2022-10-16T04:11:52;6.75;;;3.72;;
59302;SDS011;45074;52.764;6.896;2022-10-16T04:14:18;8.18;;;3.55;;
59302;SDS011;45074;52.764;6.896;2022-10-16T04:16:44;7.70;;;4.05;;
59302;SDS011;45074;52.764;6.896;2022-10-16T04:19:10;7.30;;;3.80;;
59302;SDS011;45074;52.764;6.896;2022-10-16T04:21:36;7.40;;;3.95;;
59302;SDS011;45074;52.764;6.896;2022-10-16T04:24:02;7.10;;;3.80;;
59302;SDS011;45074;52.764;6.896;2022-10-16T04:26:28;7.53;;;3.95;;
59302;SDS011;45074;52.764;6.896;2022-10-16T04:28:54;8.02;;;4.18;;
59302;SDS011;45074;52.764;6.896;2022-10-16T04:31:20;7.28;;;3.85;;
59302;SDS011;45074;52.764;6.896;2022-10-16T04:33:46;6.63;;;4.00;;
59302;SDS011;45074;52.764;6.896;2022-10-16T04:36:12;6.70;;;3.92;;
59302;SDS011;45074;52.764;6.896;2022-10-16T04:38:38;8.65;;;3.92;;
59302;SDS011;45074;52.764;6.896;2022-10-16T04:41:04;7.15;;;3.83;;
59302;SDS011;45074;52.764;6.896;2022-10-16T04:43:30;10.27;;;3.80;;
59302;SDS011;45074;52.764;6.896;2022-10-16T04:45:56;7.18;;;4.15;;
59302;SDS011;45074;52.764;6.896;2022-10-16T04:48:22;8.15;;;3.95;;
59302;SDS011;45074;52.764;6.896;2022-10-16T04:50:48;7.50;;;4.05;;
59302;SDS011;45074;52.764;6.896;2022-10-16T04:53:14;7.13;;;3.90;;
59302;SDS011;45074;52.764;6.896;2022-10-16T04:55:40;8.75;;;4.38;;
59302;SDS011;45074;52.764;6.896;2022-10-16T04:58:06;7.15;;;4.15;;
59302;SDS011;45074;52.764;6.896;2022-10-16T05:00:32;7.40;;;4.07;;
59302;SDS011;45074;52.764;6.896;2022-10-16T05:02:58;7.88;;;4.40;;
59302;SDS011;45074;52.764;6.896;2022-10-16T05:05:25;7.72;;;3.92;;
59302;SDS011;45074;52.764;6.896;2022-10-16T05:07:51;8.48;;;4.38;;
59302;SDS011;45074;52.764;6.896;2022-10-16T05:10:17;7.10;;;4.05;;
59302;SDS011;45074;52.764;6.896;2022-10-16T05:12:43;8.35;;;4.30;;
59302;SDS011;45074;52.764;6.896;2022-10-16T05:15:09;6.43;;;3.97;;
59302;SDS011;45074;52.764;6.896;2022-10-16T05:17:35;8.05;;;4.10;;
59302;SDS011;45074;52.764;6.896;2022-10-16T05:20:01;6.65;;;4.00;;
59302;SDS011;45074;52.764;6.896;2022-10-16T05:22:28;8.32;;;4.13;;
59302;SDS011;45074;52.764;6.896;2022-10-16T05:24:54;8.82;;;3.67;;
59302;SDS011;45074;52.764;6.896;2022-10-16T05:27:19;6.45;;;3.97;;
59302;SDS011;45074;52.764;6.896;2022-10-16T05:29:46;8.18;;;4.10;;
59302;SDS011;45074;52.764;6.896;2022-10-16T05:32:12;6.95;;;4.03;;
59302;SDS011;45074;52.764;6.896;2022-10-16T05:34:39;7.50;;;3.75;;
59302;SDS011;45074;52.764;6.896;2022-10-16T05:37:05;8.07;;;4.28;;
59302;SDS011;45074;52.764;6.896;2022-10-16T05:39:30;7.82;;;3.72;;
59302;SDS011;45074;52.764;6.896;2022-10-16T05:41:56;7.15;;;4.07;;
59302;SDS011;45074;52.764;6.896;2022-10-16T05:44:22;6.15;;;3.70;;
59302;SDS011;45074;52.764;6.896;2022-10-16T05:46:47;7.18;;;3.97;;
59302;SDS011;45074;52.764;6.896;2022-10-16T05:49:13;7.65;;;4.07;;
59302;SDS011;45074;52.764;6.896;2022-10-16T05:51:39;5.72;;;3.50;;
59302;SDS011;45074;52.764;6.896;2022-10-16T05:54:04;7.28;;;4.32;;
59302;SDS011;45074;52.764;6.896;2022-10-16T05:56:30;7.15;;;3.95;;
59302;SDS011;45074;52.764;6.896;2022-10-16T05:58:56;6.38;;;3.42;;
59302;SDS011;45074;52.764;6.896;2022-10-16T06:01:21;6.05;;;3.28;;
59302;SDS011;45074;52.764;6.896;2022-10-16T06:03:49;7.38;;;3.72;;
59302;SDS011;45074;52.764;6.896;2022-10-16T06:06:18;7.68;;;3.88;;
59302;SDS011;45074;52.764;6.896;2022-10-16T06:08:46;8.10;;;3.80;;
59302;SDS011;45074;52.764;6.896;2022-10-16T06:11:17;5.70;;;3.53;;
59302;SDS011;45074;52.764;6.896;2022-10-16T06:13:44;13.38;;;7.63;;
59302;SDS011;45074;52.764;6.896;2022-10-16T06:16:11;6.10;;;3.60;;
59302;SDS011;45074;52.764;6.896;2022-10-16T06:18:37;6.97;;;3.60;;
59302;SDS011;45074;52.764;6.896;2022-10-16T06:21:22;7.13;;;4.32;;
59302;SDS011;45074;52.764;6.896;2022-10-16T06:23:50;7.55;;;3.83;;
59302;SDS011;45074;52.764;6.896;2022-10-16T06:26:17;8.60;;;3.70;;
59302;SDS011;45074;52.764;6.896;2022-10-16T06:28:44;9.25;;;3.75;;
59302;SDS011;45074;52.764;6.896;2022-10-16T06:31:10;8.60;;;3.08;;
59302;SDS011;45074;52.764;6.896;2022-10-16T06:33:37;8.13;;;3.50;;
59302;SDS011;45074;52.764;6.896;2022-10-16T06:36:04;7.10;;;3.38;;
59302;SDS011;45074;52.764;6.896;2022-10-16T06:38:33;8.18;;;3.35;;
59302;SDS011;45074;52.764;6.896;2022-10-16T06:40:58;7.03;;;3.35;;
59302;SDS011;45074;52.764;6.896;2022-10-16T06:43:24;6.70;;;3.38;;
59302;SDS011;45074;52.764;6.896;2022-10-16T06:45:54;4.88;;;2.97;;
59302;SDS011;45074;52.764;6.896;2022-10-16T06:48:21;6.43;;;3.30;;
59302;SDS011;45074;52.764;6.896;2022-10-16T06:53:26;6.65;;;3.15;;
59302;SDS011;45074;52.764;6.896;2022-10-16T06:55:53;7.97;;;3.20;;
59302;SDS011;45074;52.764;6.896;2022-10-16T06:58:19;8.15;;;3.00;;
59302;SDS011;45074;52.764;6.896;2022-10-16T07:00:45;6.50;;;3.13;;
59302;SDS011;45074;52.764;6.896;2022-10-16T07:03:11;7.63;;;3.30;;
59302;SDS011;45074;52.764;6.896;2022-10-16T07:05:43;6.78;;;3.30;;
59302;SDS011;45074;52.764;6.896;2022-10-16T07:08:09;6.32;;;3.45;;
59302;SDS011;45074;52.764;6.896;2022-10-16T07:10:35;6.95;;;3.38;;
59302;SDS011;45074;52.764;6.896;2022-10-16T07:13:01;6.30;;;3.13;;
59302;SDS011;45074;52.764;6.896;2022-10-16T07:15:27;7.15;;;3.10;;
59302;SDS011;45074;52.764;6.896;2022-10-16T07:17:53;8.18;;;3.20;;
59302;SDS011;45074;52.764;6.896;2022-10-16T07:20:19;7.07;;;3.17;;
59302;SDS011;45074;52.764;6.896;2022-10-16T07:22:45;6.10;;;3.00;;
59302;SDS011;45074;52.764;6.896;2022-10-16T07:25:11;7.95;;;3.30;;
59302;SDS011;45074;52.764;6.896;2022-10-16T07:27:37;7.32;;;3.30;;
59302;SDS011;45074;52.764;6.896;2022-10-16T07:30:03;7.50;;;3.30;;
59302;SDS011;45074;52.764;6.896;2022-10-16T07:32:29;8.40;;;3.45;;
59302;SDS011;45074;52.764;6.896;2022-10-16T07:34:55;8.88;;;3.97;;
59302;SDS011;45074;52.764;6.896;2022-10-16T07:37:21;9.02;;;3.40;;
59302;SDS011;45074;52.764;6.896;2022-10-16T07:39:47;7.32;;;3.22;;
59302;SDS011;45074;52.764;6.896;2022-10-16T07:42:12;6.65;;;2.80;;
59302;SDS011;45074;52.764;6.896;2022-10-16T07:44:38;7.35;;;2.97;;
59302;SDS011;45074;52.764;6.896;2022-10-16T07:47:05;7.40;;;3.10;;
59302;SDS011;45074;52.764;6.896;2022-10-16T07:49:31;5.03;;;2.97;;
59302;SDS011;45074;52.764;6.896;2022-10-16T07:51:56;6.88;;;3.70;;
59302;SDS011;45074;52.764;6.896;2022-10-16T07:54:22;8.27;;;3.13;;
59302;SDS011;45074;52.764;6.896;2022-10-16T07:56:48;7.10;;;3.35;;
59302;SDS011;45074;52.764;6.896;2022-10-16T07:59:13;7.53;;;3.40;;
59302;SDS011;45074;52.764;6.896;2022-10-16T08:01:39;6.43;;;3.20;;
59302;SDS011;45074;52.764;6.896;2022-10-16T08:04:07;4.95;;;2.72;;
59302;SDS011;45074;52.764;6.896;2022-10-16T08:06:37;7.40;;;2.92;;
59302;SDS011;45074;52.764;6.896;2022-10-16T08:09:05;8.32;;;3.10;;
59302;SDS011;45074;52.764;6.896;2022-10-16T08:11:31;6.88;;;3.03;;
59302;SDS011;45074;52.764;6.896;2022-10-16T08:13:57;7.15;;;3.03;;
59302;SDS011;45074;52.764;6.896;2022-10-16T08:16:22;7.07;;;2.75;;
59302;SDS011;45074;52.764;6.896;2022-10-16T08:18:48;7.03;;;2.78;;
59302;SDS011;45074;52.764;6.896;2022-10-16T08:21:16;5.30;;;2.40;;
59302;SDS011;45074;52.764;6.896;2022-10-16T08:23:44;4.18;;;2.20;;
59302;SDS011;45074;52.764;6.896;2022-10-16T08:26:10;7.03;;;2.42;;
59302;SDS011;45074;52.764;6.896;2022-10-16T08:28:37;5.53;;;2.50;;
59302;SDS011;45074;52.764;6.896;2022-10-16T08:31:06;6.72;;;2.75;;
59302;SDS011;45074;52.764;6.896;2022-10-16T08:33:33;6.60;;;2.45;;
59302;SDS011;45074;52.764;6.896;2022-10-16T08:36:00;4.85;;;2.50;;
59302;SDS011;45074;52.764;6.896;2022-10-16T08:38:26;5.88;;;2.45;;
59302;SDS011;45074;52.764;6.896;2022-10-16T08:40:52;5.65;;;2.50;;
59302;SDS011;45074;52.764;6.896;2022-10-16T08:49:16;8.25;;;3.15;;
59302;SDS011;45074;52.764;6.896;2022-10-16T08:51:42;7.10;;;2.90;;
59302;SDS011;45074;52.764;6.896;2022-10-16T08:56:43;7.07;;;2.55;;
59302;SDS011;45074;52.764;6.896;2022-10-16T08:59:10;6.15;;;2.60;;
59302;SDS011;45074;52.764;6.896;2022-10-16T09:01:38;6.28;;;2.80;;
59302;SDS011;45074;52.764;6.896;2022-10-16T09:06:52;7.20;;;2.30;;
59302;SDS011;45074;52.764;6.896;2022-10-16T09:20:43;5.82;;;2.30;;
59302;SDS011;45074;52.764;6.896;2022-10-16T09:23:18;7.30;;;2.15;;
59302;SDS011;45074;52.764;6.896;2022-10-16T09:28:14;4.53;;;1.90;;
59302;SDS011;45074;52.764;6.896;2022-10-16T09:30:41;7.30;;;2.05;;
59302;SDS011;45074;52.764;6.896;2022-10-16T09:33:07;8.07;;;2.05;;
59302;SDS011;45074;52.764;6.896;2022-10-16T09:35:36;6.63;;;1.65;;
59302;SDS011;45074;52.764;6.896;2022-10-16T09:38:05;8.15;;;1.88;;
59302;SDS011;45074;52.764;6.896;2022-10-16T09:40:38;6.30;;;1.60;;
59302;SDS011;45074;52.764;6.896;2022-10-16T09:49:49;6.90;;;1.70;;
59302;SDS011;45074;52.764;6.896;2022-10-16T09:52:02;5.18;;;1.50;;
59302;SDS011;45074;52.764;6.896;2022-10-16T09:54:36;7.57;;;2.10;;
59302;SDS011;45074;52.764;6.896;2022-10-16T09:57:11;7.90;;;1.52;;
59302;SDS011;45074;52.764;6.896;2022-10-16T09:59:59;6.15;;;1.90;;
59302;SDS011;45074;52.764;6.896;2022-10-16T10:02:34;7.30;;;1.80;;
59302;SDS011;45074;52.764;6.896;2022-10-16T10:05:02;7.95;;;1.75;;
59302;SDS011;45074;52.764;6.896;2022-10-16T10:07:31;7.55;;;1.77;;
59302;SDS011;45074;52.764;6.896;2022-10-16T10:10:27;5.75;;;2.00;;
59302;SDS011;45074;52.764;6.896;2022-10-16T10:12:55;9.25;;;2.13;;
59302;SDS011;45074;52.764;6.896;2022-10-16T10:15:21;7.88;;;1.88;;
59302;SDS011;45074;52.764;6.896;2022-10-16T10:20:25;7.60;;;1.90;;
59302;SDS011;45074;52.764;6.896;2022-10-16T10:22:52;7.20;;;2.00;;
59302;SDS011;45074;52.764;6.896;2022-10-16T10:33:37;8.23;;;1.85;;
59302;SDS011;45074;52.764;6.896;2022-10-16T10:38:48;9.02;;;1.73;;
59302;SDS011;45074;52.764;6.896;2022-10-16T10:41:27;6.68;;;1.73;;
59302;SDS011;45074;52.764;6.896;2022-10-16T10:49:18;7.93;;;1.92;;
59302;SDS011;45074;52.764;6.896;2022-10-16T10:57:22;5.90;;;1.90;;
59302;SDS011;45074;52.764;6.896;2022-10-16T11:00:16;8.32;;;1.92;;
59302;SDS011;45074;52.764;6.896;2022-10-16T11:08:09;10.23;;;2.13;;
59302;SDS011;45074;52.764;6.896;2022-10-16T11:10:44;10.23;;;2.40;;
59302;SDS011;45074;52.764;6.896;2022-10-16T11:13:23;7.32;;;1.83;;
59302;SDS011;45074;52.764;6.896;2022-10-16T11:15:59;7.95;;;2.00;;
59302;SDS011;45074;52.764;6.896;2022-10-16T11:21:14;10.07;;;2.17;;
59302;SDS011;45074;52.764;6.896;2022-10-16T11:26:27;7.63;;;2.05;;
59302;SDS011;45074;52.764;6.896;2022-10-16T11:28:57;10.25;;;2.00;;
59302;SDS011;45074;52.764;6.896;2022-10-16T11:34:28;6.82;;;1.75;;
59302;SDS011;45074;52.764;6.896;2022-10-16T11:39:32;11.25;;;2.47;;
59302;SDS011;45074;52.764;6.896;2022-10-16T11:49:52;10.13;;;1.92;;
59302;SDS011;45074;52.764;6.896;2022-10-16T11:52:30;9.52;;;2.22;;
59302;SDS011;45074;52.764;6.896;2022-10-16T11:55:13;9.52;;;1.80;;
59302;SDS011;45074;52.764;6.896;2022-10-16T11:57:53;8.30;;;2.00;;
59302;SDS011;45074;52.764;6.896;2022-10-16T12:00:28;10.43;;;1.90;;
59302;SDS011;45074;52.764;6.896;2022-10-16T12:09:21;7.43;;;1.63;;
59302;SDS011;45074;52.764;6.896;2022-10-16T12:11:51;8.63;;;1.80;;
59302;SDS011;45074;52.764;6.896;2022-10-16T12:16:58;10.98;;;1.77;;
59302;SDS011;45074;52.764;6.896;2022-10-16T12:19:26;7.70;;;1.70;;
59302;SDS011;45074;52.764;6.896;2022-10-16T12:21:57;8.02;;;1.90;;
59302;SDS011;45074;52.764;6.896;2022-10-16T12:27:04;7.85;;;1.75;;
59302;SDS011;45074;52.764;6.896;2022-10-16T12:29:41;7.13;;;1.50;;
59302;SDS011;45074;52.764;6.896;2022-10-16T12:32:27;7.97;;;1.83;;
59302;SDS011;45074;52.764;6.896;2022-10-16T12:34:55;9.00;;;1.80;;
59302;SDS011;45074;52.764;6.896;2022-10-16T12:37:26;7.85;;;1.88;;
59302;SDS011;45074;52.764;6.896;2022-10-16T12:39:55;9.55;;;1.60;;
59302;SDS011;45074;52.764;6.896;2022-10-16T12:44:51;8.10;;;1.60;;
59302;SDS011;45074;52.764;6.896;2022-10-16T12:47:35;6.90;;;1.50;;
59302;SDS011;45074;52.764;6.896;2022-10-16T12:50:03;5.53;;;1.60;;
59302;SDS011;45074;52.764;6.896;2022-10-16T12:52:48;8.70;;;1.50;;
59302;SDS011;45074;52.764;6.896;2022-10-16T12:55:16;8.35;;;1.38;;
59302;SDS011;45074;52.764;6.896;2022-10-16T13:00:37;9.75;;;1.50;;
59302;SDS011;45074;52.764;6.896;2022-10-16T13:20:12;7.18;;;1.52;;
59302;SDS011;45074;52.764;6.896;2022-10-16T13:23:17;6.65;;;1.40;;
59302;SDS011;45074;52.764;6.896;2022-10-16T13:28:46;8.65;;;1.65;;
59302;SDS011;45074;52.764;6.896;2022-10-16T13:31:17;8.60;;;1.35;;
59302;SDS011;45074;52.764;6.896;2022-10-16T13:33:46;6.43;;;1.40;;
59302;SDS011;45074;52.764;6.896;2022-10-16T13:36:23;7.22;;;2.10;;
59302;SDS011;45074;52.764;6.896;2022-10-16T13:39:00;5.55;;;1.35;;
59302;SDS011;45074;52.764;6.896;2022-10-16T13:41:36;7.18;;;1.58;;
59302;SDS011;45074;52.764;6.896;2022-10-16T13:44:02;8.18;;;1.60;;
59302;SDS011;45074;52.764;6.896;2022-10-16T13:46:28;7.95;;;1.67;;
59302;SDS011;45074;52.764;6.896;2022-10-16T13:51:26;6.57;;;1.40;;
59302;SDS011;45074;52.764;6.896;2022-10-16T13:53:54;7.93;;;1.80;;
59302;SDS011;45074;52.764;6.896;2022-10-16T13:56:22;6.82;;;1.33;;
59302;SDS011;45074;52.764;6.896;2022-10-16T13:59:04;10.40;;;1.85;;
59302;SDS011;45074;52.764;6.896;2022-10-16T14:01:40;6.85;;;1.90;;
59302;SDS011;45074;52.764;6.896;2022-10-16T14:04:07;7.63;;;1.60;;
59302;SDS011;45074;52.764;6.896;2022-10-16T14:06:35;6.60;;;1.50;;
59302;SDS011;45074;52.764;6.896;2022-10-16T14:09:26;7.15;;;1.50;;
59302;SDS011;45074;52.764;6.896;2022-10-16T14:11:54;6.13;;;1.50;;
59302;SDS011;45074;52.764;6.896;2022-10-16T14:14:30;7.63;;;1.58;;
59302;SDS011;45074;52.764;6.896;2022-10-16T14:17:13;6.90;;;1.60;;
59302;SDS011;45074;52.764;6.896;2022-10-16T14:19:51;6.78;;;1.35;;
59302;SDS011;45074;52.764;6.896;2022-10-16T14:22:35;7.88;;;1.65;;
59302;SDS011;45074;52.764;6.896;2022-10-16T14:25:24;6.03;;;1.45;;
59302;SDS011;45074;52.764;6.896;2022-10-16T14:27:56;6.55;;;1.30;;
59302;SDS011;45074;52.764;6.896;2022-10-16T14:32:53;7.40;;;1.55;;
59302;SDS011;45074;52.764;6.896;2022-10-16T14:35:27;7.20;;;1.50;;
59302;SDS011;45074;52.764;6.896;2022-10-16T14:40:48;7.82;;;1.77;;
59302;SDS011;45074;52.764;6.896;2022-10-16T14:43:20;6.15;;;1.50;;
59302;SDS011;45074;52.764;6.896;2022-10-16T14:46:16;8.98;;;1.58;;
59302;SDS011;45074;52.764;6.896;2022-10-16T14:48:48;9.38;;;1.92;;
59302;SDS011;45074;52.764;6.896;2022-10-16T14:51:16;7.28;;;1.67;;
59302;SDS011;45074;52.764;6.896;2022-10-16T14:53:43;5.47;;;1.30;;
59302;SDS011;45074;52.764;6.896;2022-10-16T14:56:16;8.93;;;1.70;;
59302;SDS011;45074;52.764;6.896;2022-10-16T14:58:46;7.18;;;1.70;;
59302;SDS011;45074;52.764;6.896;2022-10-16T15:01:12;6.55;;;1.67;;
59302;SDS011;45074;52.764;6.896;2022-10-16T15:03:38;7.95;;;1.55;;
59302;SDS011;45074;52.764;6.896;2022-10-16T15:06:08;6.68;;;1.50;;
59302;SDS011;45074;52.764;6.896;2022-10-16T15:08:38;9.55;;;1.70;;
59302;SDS011;45074;52.764;6.896;2022-10-16T15:11:04;7.10;;;1.70;;
59302;SDS011;45074;52.764;6.896;2022-10-16T15:13:34;8.47;;;1.63;;
59302;SDS011;45074;52.764;6.896;2022-10-16T15:16:00;7.50;;;1.88;;
59302;SDS011;45074;52.764;6.896;2022-10-16T15:18:25;6.13;;;1.70;;
59302;SDS011;45074;52.764;6.896;2022-10-16T15:20:51;6.70;;;1.75;;
59302;SDS011;45074;52.764;6.896;2022-10-16T15:23:18;7.60;;;2.35;;
59302;SDS011;45074;52.764;6.896;2022-10-16T15:28:16;8.95;;;1.98;;
59302;SDS011;45074;52.764;6.896;2022-10-16T15:30:43;7.75;;;1.88;;
59302;SDS011;45074;52.764;6.896;2022-10-16T15:33:13;8.50;;;1.90;;
59302;SDS011;45074;52.764;6.896;2022-10-16T15:35:45;5.85;;;1.77;;
59302;SDS011;45074;52.764;6.896;2022-10-16T15:38:13;5.87;;;1.90;;
59302;SDS011;45074;52.764;6.896;2022-10-16T15:40:39;8.00;;;2.45;;
59302;SDS011;45074;52.764;6.896;2022-10-16T15:43:06;8.80;;;3.45;;
59302;SDS011;45074;52.764;6.896;2022-10-16T15:45:32;8.10;;;3.50;;
59302;SDS011;45074;52.764;6.896;2022-10-16T15:47:58;10.75;;;4.95;;
59302;SDS011;45074;52.764;6.896;2022-10-16T15:50:23;9.55;;;4.25;;
59302;SDS011;45074;52.764;6.896;2022-10-16T15:52:49;12.00;;;4.45;;
59302;SDS011;45074;52.764;6.896;2022-10-16T15:55:16;8.73;;;3.40;;
59302;SDS011;45074;52.764;6.896;2022-10-16T15:57:43;9.48;;;3.72;;
59302;SDS011;45074;52.764;6.896;2022-10-16T16:00:10;10.93;;;3.67;;
59302;SDS011;45074;52.764;6.896;2022-10-16T16:02:38;11.80;;;6.15;;
59302;SDS011;45074;52.764;6.896;2022-10-16T16:05:05;15.38;;;7.05;;
59302;SDS011;45074;52.764;6.896;2022-10-16T16:07:36;12.93;;;6.15;;
59302;SDS011;45074;52.764;6.896;2022-10-16T16:10:03;13.65;;;6.05;;
59302;SDS011;45074;52.764;6.896;2022-10-16T16:12:31;13.50;;;6.53;;
59302;SDS011;45074;52.764;6.896;2022-10-16T16:14:57;12.40;;;6.03;;
59302;SDS011;45074;52.764;6.896;2022-10-16T16:17:22;14.18;;;4.60;;
59302;SDS011;45074;52.764;6.896;2022-10-16T16:19:49;9.38;;;3.10;;
59302;SDS011;45074;52.764;6.896;2022-10-16T16:22:15;7.75;;;2.97;;
59302;SDS011;45074;52.764;6.896;2022-10-16T16:24:41;7.68;;;2.25;;
59302;SDS011;45074;52.764;6.896;2022-10-16T16:27:07;7.53;;;2.20;;
59302;SDS011;45074;52.764;6.896;2022-10-16T16:29:33;8.07;;;2.08;;
59302;SDS011;45074;52.764;6.896;2022-10-16T16:31:59;9.45;;;2.80;;
59302;SDS011;45074;52.764;6.896;2022-10-16T16:34:26;8.73;;;2.70;;
59302;SDS011;45074;52.764;6.896;2022-10-16T16:36:52;7.05;;;2.08;;
59302;SDS011;45074;52.764;6.896;2022-10-16T16:39:18;10.60;;;2.40;;
59302;SDS011;45074;52.764;6.896;2022-10-16T16:41:44;8.52;;;2.40;;
59302;SDS011;45074;52.764;6.896;2022-10-16T16:44:11;11.05;;;2.65;;
59302;SDS011;45074;52.764;6.896;2022-10-16T16:46:37;8.15;;;2.60;;
59302;SDS011;45074;52.764;6.896;2022-10-16T16:49:04;7.30;;;3.13;;
59302;SDS011;45074;52.764;6.896;2022-10-16T16:51:31;12.18;;;4.28;;
59302;SDS011;45074;52.764;6.896;2022-10-16T16:53:58;9.98;;;4.38;;
59302;SDS011;45074;52.764;6.896;2022-10-16T16:56:24;12.13;;;5.03;;
59302;SDS011;45074;52.764;6.896;2022-10-16T16:58:51;9.75;;;4.47;;
59302;SDS011;45074;52.764;6.896;2022-10-16T17:01:19;7.85;;;3.25;;
59302;SDS011;45074;52.764;6.896;2022-10-16T17:03:46;9.70;;;3.25;;
59302;SDS011;45074;52.764;6.896;2022-10-16T17:06:14;9.00;;;2.90;;
59302;SDS011;45074;52.764;6.896;2022-10-16T17:08:40;9.40;;;3.30;;
59302;SDS011;45074;52.764;6.896;2022-10-16T17:11:11;9.95;;;3.25;;
59302;SDS011;45074;52.764;6.896;2022-10-16T17:13:38;10.30;;;3.45;;
59302;SDS011;45074;52.764;6.896;2022-10-16T17:16:05;10.23;;;5.00;;
59302;SDS011;45074;52.764;6.896;2022-10-16T17:18:31;17.83;;;10.40;;
59302;SDS011;45074;52.764;6.896;2022-10-16T17:21:01;29.65;;;17.60;;
59302;SDS011;45074;52.764;6.896;2022-10-16T17:23:29;22.23;;;12.20;;
59302;SDS011;45074;52.764;6.896;2022-10-16T17:25:55;14.73;;;7.43;;